LXGB/GIB METAR and TAF weather

Enter ICAO airport designator
Station Type Date Time Source
LXGB METAR 2019/08/18 09:20 UTC NOAA

LXGB 180920Z 25007KT 9999 FEW025 26/18 Q1014 NOSIG RMK BLU BLU


Station Type Date Time Source
LXGB Decoded METAR 2019/08/18 09:20 UTC NOAA

Station name not available
Aug 18, 2019 - 05:20 AM EDT / 2019.08.18 0920 UTC
Wind: from the WSW (250 degrees) at 8 MPH (7 KT):0
Visibility: greater than 7 mile(s):0
Sky conditions: mostly clear
Temperature: 78 F (26 C)
Dew Point: 64 F (18 C)
Relative Humidity: 61%
Pressure (altimeter): 29.94 in. Hg (1014 hPa)
ob: LXGB 180920Z 25007KT 9999 FEW025 26/18 Q1014 NOSIG RMK BLU BLU
cycle: 9

Station Type Date Time Source
LXGB TAF 2019/05/20 18:18 UTC NOAA

TAF
AMD TAF
AMD LXGB 202014Z 2018/2222 CNL

Example: see airport list